PWSweather.com
Personal Weather Stations
Station Observations

BunburyAU

Lat: -33.378333, Lon: 115.651667

Elevation: 95

Station Type: Fine Offset WH2081

http://www.collegegrove.info

Latest ConditionsUpdated 8:15:01 AM GMT+08:08 Saturday, Feb 13, 2016
Currently Today's Max Today's Min Today's Average
Temperature 70.2°F21.2°C 70.2°F21.2°C 55.9°F13.3°C 61.1°F16.2°C
Dew Point 49.0°F9.4°C 59.3°F15.2°C 49.0°F9.4°C 55.1°F12.8°C
Winds 6.4 mph ESE10.3 kmh ESE 6.8 mph SE10.9 kmh SE - 3.2 mph 5.1 kmh
Wind Gusts 13.6 mph21.9 kmh 13.6 mph21.9 kmh - -
Humidity 47% 92% 47% 82%
Pressure 30.25 in1024.4 mb 30.25 in1024.4 mb 30.13 in1020.3 mb -
Hour Temp Dew Point Humidity Winds Wind Gusts Pressure Precip Precip Rate Daily Precip Total
08:15 AM 70.2°F21.2°C 49.0°F9.4°C 47% 6.4 mph ESE10.3 kmh ESE 13.6 mph21.9 kmh 30.25 in1024.4 mb 0.00 in0.0 mm 0.00 in0.0 mm 0.00 in0.0 mm
08:00 AM 68.9°F20.5°C 49.5°F9.7°C 50% 6.8 mph SE10.9 kmh SE 13.0 mph20.9 kmh 30.25 in1024.4 mb 0.00 in0.0 mm 0.00 in0.0 mm 0.00 in0.0 mm
07:45 AM 68.4°F20.2°C 50.6°F10.3°C 53% 5.6 mph SE9.0 kmh SE 12.1 mph19.5 kmh 30.25 in1024.4 mb 0.00 in0.0 mm 0.00 in0.0 mm 0.00 in0.0 mm
07:30 AM 68.0°F20.0°C 52.2°F11.2°C 57% 4.0 mph SE6.4 kmh SE 9.2 mph14.8 kmh 30.25 in1024.4 mb 0.00 in0.0 mm 0.00 in0.0 mm 0.00 in0.0 mm
07:15 AM 65.5°F18.6°C 52.6°F11.4°C 63% 4.5 mph SSE7.2 kmh SSE 9.8 mph15.8 kmh 30.25 in1024.4 mb 0.00 in0.0 mm 0.00 in0.0 mm 0.00 in0.0 mm
07:00 AM 64.0°F17.8°C 52.5°F11.4°C 66% 4.2 mph SSE6.8 kmh SSE 9.8 mph15.8 kmh 30.24 in1024.0 mb 0.00 in0.0 mm 0.00 in0.0 mm 0.00 in0.0 mm
06:45 AM 62.2°F16.8°C 52.3°F11.3°C 70% 2.5 mph SE4.0 kmh SE 8.3 mph13.4 kmh 30.23 in1023.7 mb 0.00 in0.0 mm 0.00 in0.0 mm 0.00 in0.0 mm
06:30 AM 59.9°F15.5°C 52.7°F11.5°C 77% 2.2 mph SE3.5 kmh SE 6.0 mph9.7 kmh 30.22 in1023.4 mb 0.00 in0.0 mm 0.00 in0.0 mm 0.00 in0.0 mm
06:15 AM 57.7°F14.3°C 52.9°F11.6°C 84% 1.3 mph SE2.1 kmh SE 4.5 mph7.2 kmh 30.22 in1023.4 mb 0.00 in0.0 mm 0.00 in0.0 mm 0.00 in0.0 mm
06:00 AM 56.1°F13.4°C 52.0°F11.1°C 86% 2.5 mph SE4.0 kmh SE 5.4 mph8.7 kmh 30.22 in1023.4 mb 0.00 in0.0 mm 0.00 in0.0 mm 0.00 in0.0 mm
05:45 AM 55.9°F13.3°C 52.4°F11.3°C 88% 2.0 mph SE3.2 kmh SE 4.5 mph7.2 kmh 30.21 in1023.0 mb 0.00 in0.0 mm 0.00 in0.0 mm 0.00 in0.0 mm
05:30 AM 56.1°F13.4°C 52.9°F11.6°C 89% 1.5 mph SE2.4 kmh SE 3.8 mph6.1 kmh 30.20 in1022.7 mb 0.00 in0.0 mm 0.00 in0.0 mm 0.00 in0.0 mm
05:15 AM 56.7°F13.7°C 53.8°F12.1°C 90% 1.9 mph SSE3.1 kmh SSE 6.0 mph9.7 kmh 30.20 in1022.7 mb 0.00 in0.0 mm 0.00 in0.0 mm 0.00 in0.0 mm
05:00 AM 57.0°F13.9°C 54.7°F12.6°C 92% 2.0 mph SSE3.2 kmh SSE 4.5 mph7.2 kmh 30.20 in1022.7 mb 0.00 in0.0 mm 0.00 in0.0 mm 0.00 in0.0 mm
04:45 AM 57.2°F14.0°C 54.9°F12.7°C 92% 2.5 mph SE4.0 kmh SE 6.0 mph9.7 kmh 30.19 in1022.4 mb 0.00 in0.0 mm 0.00 in0.0 mm 0.00 in0.0 mm
04:30 AM 57.7°F14.3°C 55.4°F13.0°C 92% 2.6 mph SSE4.2 kmh SSE 6.0 mph9.7 kmh 30.18 in1022.0 mb 0.00 in0.0 mm 0.00 in0.0 mm 0.00 in0.0 mm
04:15 AM 58.1°F14.5°C 55.8°F13.2°C 92% 2.7 mph S4.3 kmh S 6.0 mph9.7 kmh 30.18 in1022.0 mb 0.00 in0.0 mm 0.00 in0.0 mm 0.00 in0.0 mm
04:00 AM 58.5°F14.7°C 55.9°F13.3°C 91% 2.8 mph SSE4.5 kmh SSE 6.0 mph9.7 kmh 30.17 in1021.7 mb 0.00 in0.0 mm 0.00 in0.0 mm 0.00 in0.0 mm
03:45 AM 58.8°F14.9°C 56.2°F13.4°C 91% 2.3 mph S3.7 kmh S 6.0 mph9.7 kmh 30.17 in1021.7 mb 0.00 in0.0 mm 0.00 in0.0 mm 0.00 in0.0 mm
03:30 AM 59.2°F15.1°C 56.0°F13.3°C 89% 2.6 mph S4.2 kmh S 6.0 mph9.7 kmh 30.16 in1021.3 mb 0.00 in0.0 mm 0.00 in0.0 mm 0.00 in0.0 mm
03:15 AM 59.5°F15.3°C 56.0°F13.3°C 88% 2.8 mph S4.5 kmh S 6.0 mph9.7 kmh 30.17 in1021.7 mb 0.00 in0.0 mm 0.00 in0.0 mm 0.00 in0.0 mm
03:00 AM 59.9°F15.5°C 56.4°F13.6°C 88% 2.9 mph S4.7 kmh S 6.0 mph9.7 kmh 30.16 in1021.3 mb 0.00 in0.0 mm 0.00 in0.0 mm 0.00 in0.0 mm
02:45 AM 60.3°F15.7°C 56.7°F13.7°C 88% 3.5 mph SSE5.6 kmh SSE 6.9 mph11.1 kmh 30.16 in1021.3 mb 0.00 in0.0 mm 0.00 in0.0 mm 0.00 in0.0 mm
02:30 AM 60.4°F15.8°C 57.2°F14.0°C 89% 3.1 mph S5.0 kmh S 6.0 mph9.7 kmh 30.15 in1021.0 mb 0.00 in0.0 mm 0.00 in0.0 mm 0.00 in0.0 mm
02:15 AM 60.6°F15.9°C 57.4°F14.1°C 89% 2.4 mph S3.9 kmh S 5.4 mph8.7 kmh 30.15 in1021.0 mb 0.00 in0.0 mm 0.00 in0.0 mm 0.00 in0.0 mm
02:00 AM 61.0°F16.1°C 57.7°F14.3°C 89% 2.8 mph S4.5 kmh S 6.0 mph9.7 kmh 30.15 in1021.0 mb 0.00 in0.0 mm 0.00 in0.0 mm 0.00 in0.0 mm
01:45 AM 61.3°F16.3°C 57.8°F14.3°C 88% 3.5 mph SSW5.6 kmh SSW 8.3 mph13.4 kmh 30.14 in1020.7 mb 0.00 in0.0 mm 0.00 in0.0 mm 0.00 in0.0 mm
01:30 AM 61.7°F16.5°C 58.1°F14.5°C 88% 3.8 mph S6.1 kmh S 8.3 mph13.4 kmh 30.14 in1020.7 mb 0.00 in0.0 mm 0.00 in0.0 mm 0.00 in0.0 mm
01:15 AM 61.9°F16.6°C 58.6°F14.8°C 89% 3.9 mph S6.3 kmh S 10.7 mph17.2 kmh 30.14 in1020.7 mb 0.00 in0.0 mm 0.00 in0.0 mm 0.00 in0.0 mm
01:00 AM 62.2°F16.8°C 58.7°F14.8°C 88% 2.8 mph S4.5 kmh S 6.9 mph11.1 kmh 30.14 in1020.7 mb 0.00 in0.0 mm 0.00 in0.0 mm 0.00 in0.0 mm
12:45 AM 62.8°F17.1°C 58.5°F14.7°C 86% 3.1 mph S5.0 kmh S 8.3 mph13.4 kmh 30.14 in1020.7 mb 0.00 in0.0 mm 0.00 in0.0 mm 0.00 in0.0 mm
12:30 AM 63.1°F17.3°C 58.9°F14.9°C 86% 3.6 mph S5.8 kmh S 6.9 mph11.1 kmh 30.14 in1020.7 mb 0.00 in0.0 mm 0.00 in0.0 mm 0.00 in0.0 mm
12:15 AM 63.3°F17.4°C 59.1°F15.1°C 86% 4.4 mph SSE7.1 kmh SSE 9.8 mph15.8 kmh 30.13 in1020.3 mb 0.00 in0.0 mm 0.00 in0.0 mm 0.00 in0.0 mm
12:00 AM 63.5°F17.5°C 59.3°F15.2°C 86% 3.7 mph S6.0 kmh S 7.6 mph12.2 kmh 30.13 in1020.3 mb 0.00 in0.0 mm 0.00 in0.0 mm 0.00 in0.0 mm